Time;durP1;ratioP1;P1;durP2;ratioP2;P2;SDS_P1;SDS_P2;PMS_P1;PMS_P2;Temp;Humidity;BMP_temperature;BMP_pressure;BME280_temperature;BME280_humidity;BME280_pressure;Samples;Min_cycle;Max_cycle;Signal;HPM_P1;HPM_P2
2024/01/27 00:02:08;;;;;;;21.13;7.90;;;8.60;99.90;;;;;;7382149;19;20310;-75
2024/01/27 00:04:39;;;;;;;21.08;6.93;;;8.50;99.90;;;;;;7380488;19;20095;-75
2024/01/27 00:07:07;;;;;;;17.13;7.25;;;8.50;99.90;;;;;;7378867;19;20006;-75
2024/01/27 00:09:36;;;;;;;17.20;7.32;;;8.40;99.90;;;;;;7379941;19;20014;-75
2024/01/27 00:12:05;;;;;;;22.75;7.72;;;8.40;99.90;;;;;;7394950;19;20011;-74
2024/01/27 00:14:40;;;;;;;25.40;9.00;;;8.50;99.90;;;;;;7403413;19;20014;-75
2024/01/27 00:17:09;;;;;;;17.65;7.72;;;8.40;99.90;;;;;;7381946;19;20293;-75
2024/01/27 00:19:41;;;;;;;21.67;7.90;;;8.40;99.90;;;;;;7381262;19;20006;-75
2024/01/27 00:22:10;;;;;;;25.15;7.55;;;8.40;99.90;;;;;;7385727;19;20006;-76
2024/01/27 00:24:41;;;;;;;24.42;8.10;;;8.50;99.90;;;;;;7384867;19;20019;-75
2024/01/27 00:27:11;;;;;;;20.30;8.23;;;8.40;99.90;;;;;;7388657;19;20050;-75
2024/01/27 00:29:42;;;;;;;14.10;6.17;;;8.40;99.90;;;;;;7406411;19;20010;-75
2024/01/27 00:32:11;;;;;;;19.95;7.40;;;8.40;99.90;;;;;;7387063;19;20074;-75
2024/01/27 00:34:40;;;;;;;19.05;7.93;;;8.30;99.90;;;;;;7380524;19;20006;-74
2024/01/27 00:37:08;;;;;;;28.63;8.02;;;8.30;99.90;;;;;;7379974;19;20074;-75
2024/01/27 00:39:38;;;;;;;13.35;7.55;;;8.30;99.90;;;;;;7378412;19;20265;-75
2024/01/27 00:42:07;;;;;;;20.30;7.30;;;8.30;99.90;;;;;;7399659;19;20006;-75
2024/01/27 00:44:36;;;;;;;23.65;7.88;;;8.40;99.90;;;;;;7379163;19;20019;-75
2024/01/27 00:47:07;;;;;;;17.63;7.85;;;8.40;99.90;;;;;;7380440;19;20011;-76
2024/01/27 00:49:36;;;;;;;;;;;8.40;99.90;;;;;;7379950;19;20024;-75
2024/01/27 00:52:04;;;;;;;15.88;7.50;;;8.40;99.90;;;;;;7377965;19;20158;-75
2024/01/27 00:54:33;;;;;;;26.58;7.95;;;8.30;99.90;;;;;;7377676;19;20482;-75
2024/01/27 00:57:02;;;;;;;28.02;8.45;;;8.30;99.90;;;;;;7399197;19;20023;-75
2024/01/27 00:59:28;;;;;;;37.70;9.70;;;8.20;99.90;;;;;;7379761;19;20382;-75
2024/01/27 01:01:59;;;;;;;18.08;7.82;;;8.10;99.90;;;;;;7379571;19;20027;-75
2024/01/27 01:04:30;;;;;;;20.38;7.72;;;8.10;99.90;;;;;;7376785;19;20087;-74
2024/01/27 01:06:59;;;;;;;24.77;7.63;;;8.10;99.90;;;;;;7377090;19;20011;-77
2024/01/27 01:09:27;;;;;;;25.30;6.80;;;8.00;99.90;;;;;;7378169;19;20018;-74
2024/01/27 01:11:56;;;;;;;21.63;6.60;;;8.00;99.90;;;;;;7397831;19;20287;-74
2024/01/27 01:14:25;;;;;;;24.38;7.55;;;8.00;99.90;;;;;;7377065;19;20011;-75
2024/01/27 01:16:54;;;;;;;25.48;7.57;;;8.00;99.90;;;;;;7378727;19;20074;-75
2024/01/27 01:19:24;;;;;;;20.45;6.70;;;8.10;99.90;;;;;;7378495;19;20030;-75
2024/01/27 01:21:55;;;;;;;28.60;7.25;;;8.00;99.90;;;;;;7376712;19;20032;-75
2024/01/27 01:24:24;;;;;;;18.67;7.40;;;8.00;99.90;;;;;;7377719;19;20027;-75
2024/01/27 01:26:52;;;;;;;26.92;7.63;;;7.90;99.90;;;;;;7397523;19;20007;-76
2024/01/27 01:29:22;;;;;;;17.55;6.35;;;8.00;99.90;;;;;;7375928;19;20285;-75
2024/01/27 01:31:51;;;;;;;20.52;7.57;;;8.00;99.90;;;;;;7379140;19;20011;-75
2024/01/27 01:34:20;;;;;;;24.15;7.85;;;7.90;99.90;;;;;;7376967;19;20036;-76
2024/01/27 01:36:50;;;;;;;21.13;7.72;;;7.90;99.90;;;;;;7376402;19;20015;-77
2024/01/27 01:39:21;;;;;;;14.93;7.80;;;7.90;99.90;;;;;;7375469;19;20362;-77
2024/01/27 01:41:50;;;;;;;21.23;7.88;;;7.90;99.90;;;;;;7398006;19;20011;-77
2024/01/27 01:44:19;;;;;;;26.83;9.13;;;8.00;99.90;;;;;;7376079;19;20007;-75
2024/01/27 01:46:48;;;;;;;24.23;7.50;;;7.90;99.90;;;;;;7376023;19;20011;-77
2024/01/27 01:49:17;;;;;;;23.50;7.63;;;7.90;99.90;;;;;;7378675;19;20281;-75
2024/01/27 01:51:48;;;;;;;22.58;7.07;;;7.80;99.90;;;;;;7376404;19;20089;-76
2024/01/27 01:54:16;;;;;;;15.93;7.88;;;7.80;99.90;;;;;;7376128;19;20074;-75
2024/01/27 01:56:48;;;;;;;18.80;6.90;;;7.70;99.90;;;;;;7405209;19;20058;-75
2024/01/27 01:59:16;;;;;;;;;;;7.70;99.90;;;;;;7383086;19;20045;-75
2024/01/27 02:01:47;;;;;;;17.25;6.68;;;7.70;99.90;;;;;;7384993;19;19924;-75
2024/01/27 02:04:16;;;;;;;24.63;8.30;;;7.60;99.90;;;;;;7383762;19;20006;-75
2024/01/27 02:06:45;;;;;;;22.63;6.25;;;7.60;99.90;;;;;;7383151;19;20007;-75
2024/01/27 02:09:13;;;;;;;10.27;5.78;;;7.60;99.90;;;;;;7379378;19;20358;-76
2024/01/27 02:11:42;;;;;;;16.23;7.35;;;7.60;99.90;;;;;;7406817;19;20588;-75
2024/01/27 02:14:13;;;;;;;16.30;6.00;;;7.60;99.90;;;;;;7381743;19;20044;-75
2024/01/27 02:16:42;;;;;;;23.00;6.18;;;7.60;99.90;;;;;;7384854;19;20003;-75
2024/01/27 02:19:11;;;;;;;20.50;7.50;;;7.70;99.90;;;;;;7382123;19;20007;-75
2024/01/27 02:21:39;;;;;;;16.45;6.97;;;7.70;99.90;;;;;;7382708;19;20062;-75
2024/01/27 02:24:12;;;;;;;21.27;7.57;;;7.70;99.90;;;;;;7405610;19;20011;-75
2024/01/27 02:26:41;;;;;;;19.02;6.38;;;7.60;99.90;;;;;;7382696;19;20093;-75
2024/01/27 02:29:10;;;;;;;19.95;7.05;;;7.60;99.90;;;;;;7382782;19;20031;-75
2024/01/27 02:31:41;;;;;;;17.95;7.47;;;7.60;99.90;;;;;;7380976;19;19999;-76
2024/01/27 02:34:12;;;;;;;15.93;7.13;;;7.50;99.90;;;;;;7392184;19;20018;-75
2024/01/27 02:36:43;;;;;;;16.17;6.68;;;7.50;99.90;;;;;;7389482;19;20022;-74
2024/01/27 02:39:17;;;;;;;13.70;6.18;;;7.50;99.90;;;;;;7412144;19;20350;-74
2024/01/27 02:41:48;;;;;;;18.20;5.63;;;7.50;99.90;;;;;;7388783;19;20007;-74
2024/01/27 02:44:19;;;;;;;10.88;5.38;;;7.40;99.90;;;;;;7386713;19;20056;-74
2024/01/27 02:46:48;;;;;;;12.05;5.50;;;7.40;99.90;;;;;;7382699;19;20052;-75
2024/01/27 02:49:17;;;;;;;13.20;5.82;;;7.40;99.90;;;;;;7382150;19;20011;-74
2024/01/27 02:51:47;;;;;;;20.45;7.68;;;7.40;99.90;;;;;;7383896;19;20082;-74
2024/01/27 02:54:19;;;;;;;26.13;9.10;;;7.40;99.90;;;;;;7384703;19;20106;-74
2024/01/27 02:56:47;;;;;;;23.38;7.20;;;7.40;99.90;;;;;;7409464;19;20018;-76
2024/01/27 02:59:16;;;;;;;22.95;6.57;;;7.40;99.90;;;;;;7387272;19;20023;-75
2024/01/27 03:01:45;;;;;;;15.23;6.75;;;7.40;99.90;;;;;;7383827;19;20007;-74
2024/01/27 03:04:13;;;;;;;25.98;7.53;;;7.40;99.90;;;;;;7387663;19;20015;-74
2024/01/27 03:06:42;;;;;;;20.30;8.73;;;7.40;99.90;;;;;;7385832;19;20072;-75
2024/01/27 03:09:11;;;;;;;20.70;8.23;;;7.40;99.90;;;;;;7417238;19;20015;-74
2024/01/27 03:11:42;;;;;;;19.95;7.47;;;7.40;99.90;;;;;;7395782;19;20029;-74
2024/01/27 03:14:11;;;;;;;;;;;7.40;99.90;;;;;;7380706;19;20003;-74
2024/01/27 03:16:39;;;;;;;23.35;6.88;;;7.40;99.90;;;;;;7381147;19;19907;-74
2024/01/27 03:19:08;;;;;;;20.63;7.53;;;7.40;99.90;;;;;;7382232;19;20056;-75
2024/01/27 03:21:37;;;;;;;19.73;7.93;;;7.30;99.90;;;;;;7381521;19;19998;-75
2024/01/27 03:24:07;;;;;;;21.25;7.85;;;7.30;99.90;;;;;;7401709;19;20358;-75
2024/01/27 03:26:35;;;;;;;21.35;7.65;;;7.30;99.90;;;;;;7383860;19;20011;-75
2024/01/27 03:29:08;;;;;;;24.77;7.38;;;7.30;99.90;;;;;;7379975;19;20048;-74
2024/01/27 03:31:37;;;;;;;22.55;7.25;;;7.30;99.90;;;;;;7380075;19;20007;-74
2024/01/27 03:34:06;;;;;;;18.23;6.80;;;7.30;99.90;;;;;;7379757;19;20011;-75
2024/01/27 03:36:36;;;;;;;23.13;7.03;;;7.20;99.90;;;;;;7378121;19;20066;-74
2024/01/27 03:39:06;;;;;;;16.95;6.20;;;7.20;99.90;;;;;;7398787;19;20007;-75
2024/01/27 03:41:34;;;;;;;14.30;6.43;;;7.20;99.90;;;;;;7381601;19;20006;-75
2024/01/27 03:44:06;;;;;;;16.58;6.07;;;7.20;99.90;;;;;;7379821;19;20016;-75
2024/01/27 03:46:34;;;;;;;;;;;7.10;99.90;;;;;;7379490;19;20011;-74
2024/01/27 03:49:03;;;;;;;13.82;5.95;;;7.20;99.90;;;;;;7381097;19;20215;-75
2024/01/27 03:51:31;;;;;;;16.05;6.30;;;7.10;99.90;;;;;;7379471;19;20062;-75
2024/01/27 03:54:00;;;;;;;17.42;5.97;;;7.10;99.90;;;;;;7403545;19;20077;-75
2024/01/27 03:56:29;;;;;;;15.77;6.22;;;7.20;99.90;;;;;;7378750;19;20019;-74
2024/01/27 03:58:58;;;;;;;16.20;5.78;;;7.10;99.90;;;;;;7381610;19;20010;-75
2024/01/27 04:01:29;;;;;;;18.13;6.05;;;7.10;99.90;;;;;;7378699;19;20011;-75
2024/01/27 04:03:57;;;;;;;28.55;6.28;;;7.10;99.90;;;;;;7379376;19;20319;-74
2024/01/27 04:06:26;;;;;;;22.67;6.15;;;7.10;99.90;;;;;;7382317;19;20336;-75
2024/01/27 04:08:55;;;;;;;19.05;6.18;;;7.10;99.90;;;;;;7400950;19;20019;-75
2024/01/27 04:11:25;;;;;;;15.40;5.97;;;7.00;99.90;;;;;;7378883;19;20021;-75
2024/01/27 04:13:54;;;;;;;12.63;5.28;;;6.90;99.90;;;;;;7378722;19;20023;-75
2024/01/27 04:16:23;;;;;;;17.35;6.15;;;7.00;99.90;;;;;;7379980;19;20007;-76
2024/01/27 04:18:54;;;;;;;14.82;5.50;;;6.90;99.90;;;;;;7379191;19;20016;-75
2024/01/27 04:21:23;;;;;;;18.73;6.28;;;6.90;99.90;;;;;;7381739;19;20024;-75
2024/01/27 04:23:52;;;;;;;14.02;5.60;;;6.90;99.90;;;;;;7399656;19;20095;-74
2024/01/27 04:26:20;;;;;;;15.80;6.30;;;6.90;99.90;;;;;;7377670;19;20070;-75
2024/01/27 04:28:49;;;;;;;25.88;6.75;;;6.90;99.90;;;;;;7378726;19;20011;-75
2024/01/27 04:31:20;;;;;;;15.38;6.28;;;6.80;99.90;;;;;;7379092;19;20071;-76
2024/01/27 04:33:49;;;;;;;20.15;6.70;;;6.80;99.90;;;;;;7378530;19;20007;-77
2024/01/27 04:36:28;;;;;;;10.43;5.22;;;6.80;99.90;;;;;;7382135;19;20058;-75
2024/01/27 04:38:57;;;;;;;19.92;5.53;;;6.80;99.90;;;;;;7399260;19;20014;-76
2024/01/27 04:41:25;;;;;;;18.17;5.53;;;6.70;99.90;;;;;;7379063;19;20027;-75
2024/01/27 04:43:56;;;;;;;16.00;6.35;;;6.70;99.90;;;;;;7380358;19;20217;-75
2024/01/27 04:46:25;;;;;;;17.10;6.47;;;6.80;99.90;;;;;;7377761;19;20007;-75
2024/01/27 04:48:53;;;;;;;18.08;6.95;;;6.70;99.90;;;;;;7378419;19;20003;-75
2024/01/27 04:51:25;;;;;;;21.90;6.50;;;6.80;99.90;;;;;;7381680;19;20362;-75
2024/01/27 04:53:53;;;;;;;13.95;6.07;;;6.70;99.90;;;;;;7402736;19;20097;-75
2024/01/27 04:56:22;;;;;;;19.20;6.20;;;6.70;99.90;;;;;;7377568;19;20067;-75
2024/01/27 04:58:51;;;;;;;18.40;6.05;;;6.70;99.90;;;;;;7377320;19;20324;-75
2024/01/27 05:01:20;;;;;;;14.40;5.03;;;6.70;99.90;;;;;;7377679;19;20256;-74
2024/01/27 05:03:49;;;;;;;17.33;5.55;;;6.70;99.90;;;;;;7379167;19;20023;-74
2024/01/27 05:06:18;;;;;;;21.48;6.22;;;6.70;99.90;;;;;;7402719;19;20020;-75
2024/01/27 05:08:49;;;;;;;19.45;6.75;;;6.70;99.90;;;;;;7378455;19;20003;-75
2024/01/27 05:11:18;;;;;;;;;;;6.60;99.90;;;;;;7380517;19;20014;-75
2024/01/27 05:13:48;;;;;;;18.65;5.90;;;6.70;99.90;;;;;;7378142;19;19923;-75
2024/01/27 05:16:17;;;;;;;16.52;6.43;;;6.60;99.90;;;;;;7378261;19;20021;-75
2024/01/27 05:18:45;;;;;;;18.23;5.75;;;6.60;99.90;;;;;;7377627;19;20027;-75
2024/01/27 05:21:14;;;;;;;19.88;6.07;;;6.60;99.90;;;;;;7403709;19;20011;-74
2024/01/27 05:23:43;;;;;;;23.30;6.15;;;6.60;99.90;;;;;;7379335;19;20418;-75
2024/01/27 05:26:14;;;;;;;24.45;6.22;;;6.50;99.90;;;;;;7376414;19;20024;-75
2024/01/27 05:28:42;;;;;;;;;;;6.60;99.90;;;;;;7380514;19;20120;-75
2024/01/27 05:31:11;;;;;;;21.08;4.93;;;6.50;99.90;;;;;;7390910;19;20629;-76
2024/01/27 05:33:40;;;;;;;15.05;4.93;;;6.50;99.90;;;;;;7391518;19;20014;-75
2024/01/27 05:36:09;;;;;;;26.95;6.03;;;6.40;99.90;;;;;;7414265;19;20264;-76
2024/01/27 05:38:40;;;;;;;13.30;5.57;;;6.40;99.90;;;;;;7391236;19;20028;-74
2024/01/27 05:41:11;;;;;;;22.45;5.47;;;6.40;99.90;;;;;;7396585;19;20031;-75
2024/01/27 05:43:42;;;;;;;19.83;6.05;;;6.40;99.90;;;;;;7387680;19;20062;-74
2024/01/27 05:46:11;;;;;;;;;;;6.40;99.90;;;;;;7386930;19;20062;-74
2024/01/27 05:48:40;;;;;;;14.57;5.72;;;6.40;99.90;;;;;;7386737;19;20015;-75
2024/01/27 05:51:09;;;;;;;25.40;6.28;;;6.40;99.90;;;;;;7408330;19;20011;-75
2024/01/27 05:53:38;;;;;;;14.90;5.90;;;6.50;99.90;;;;;;7383272;19;20071;-75
2024/01/27 05:56:09;;;;;;;19.83;5.72;;;6.50;99.90;;;;;;7387016;19;20002;-75
2024/01/27 05:58:37;;;;;;;13.20;4.80;;;6.50;99.90;;;;;;7385119;19;20007;-75
2024/01/27 06:01:09;;;;;;;14.75;5.43;;;6.50;99.90;;;;;;7385320;19;20006;-75
2024/01/27 06:03:38;;;;;;;13.70;5.03;;;6.50;99.90;;;;;;7383221;19;20223;-76
2024/01/27 06:06:07;;;;;;;14.10;5.18;;;6.50;99.90;;;;;;7406582;19;20539;-76
2024/01/27 06:08:36;;;;;;;11.73;4.93;;;6.50;99.90;;;;;;7385065;19;20417;-74
2024/01/27 06:11:05;;;;;;;14.80;5.57;;;6.50;99.90;;;;;;7382927;19;20110;-74
2024/01/27 06:13:37;;;;;;;13.07;6.22;;;6.50;99.90;;;;;;7382034;19;20021;-75
2024/01/27 06:16:11;;;;;;;19.30;6.20;;;6.50;99.90;;;;;;7384957;19;20016;-75
2024/01/27 06:18:40;;;;;;;27.50;5.57;;;6.40;99.90;;;;;;7382863;19;20010;-75
2024/01/27 06:21:08;;;;;;;13.63;5.47;;;6.40;99.90;;;;;;7405652;19;20066;-75
2024/01/27 06:23:37;;;;;;;14.70;5.03;;;6.40;99.90;;;;;;7381482;19;20011;-75
2024/01/27 06:26:08;;;;;;;13.98;4.90;;;6.30;99.90;;;;;;7383912;19;20011;-75
2024/01/27 06:28:37;;;;;;;14.50;5.50;;;6.30;99.90;;;;;;7383099;19;20020;-75
2024/01/27 06:31:07;;;;;;;16.75;5.55;;;6.30;99.90;;;;;;7381172;19;20011;-75
2024/01/27 06:33:38;;;;;;;14.77;5.77;;;6.40;99.90;;;;;;7382129;19;20002;-75
2024/01/27 06:36:09;;;;;;;14.82;4.93;;;6.40;99.90;;;;;;7403249;19;20063;-74
2024/01/27 06:38:39;;;;;;;22.02;5.57;;;6.40;99.90;;;;;;7381036;19;20339;-75
2024/01/27 06:41:08;;;;;;;9.73;4.30;;;6.40;99.90;;;;;;7383479;19;20076;-74
2024/01/27 06:43:37;;;;;;;20.20;5.32;;;6.30;99.90;;;;;;7383162;19;20003;-74
2024/01/27 06:46:05;;;;;;;19.02;5.20;;;6.30;99.90;;;;;;7383146;19;20014;-75
2024/01/27 06:48:34;;;;;;;19.10;5.00;;;6.30;99.90;;;;;;7383054;19;20027;-74
2024/01/27 06:51:09;;;;;;;10.27;4.70;;;6.30;99.90;;;;;;7405025;19;20011;-75
2024/01/27 06:53:38;;;;;;;10.57;5.05;;;6.30;99.90;;;;;;7380627;19;20002;-75
2024/01/27 06:56:07;;;;;;;17.25;5.78;;;6.20;99.90;;;;;;7382875;19;20014;-75
2024/01/27 06:58:36;;;;;;;22.67;5.82;;;6.20;99.90;;;;;;7383800;19;19999;-75
2024/01/27 07:01:05;;;;;;;14.32;5.32;;;6.20;99.90;;;;;;7381936;19;20107;-75
2024/01/27 07:03:34;;;;;;;14.45;6.50;;;6.20;99.90;;;;;;7381135;19;20015;-75
2024/01/27 07:06:06;;;;;;;9.43;4.60;;;6.20;99.90;;;;;;7404221;19;20023;-75
2024/01/27 07:08:35;;;;;;;13.50;4.90;;;6.20;99.90;;;;;;7380679;19;20003;-75
2024/01/27 07:11:03;;;;;;;19.92;5.03;;;6.20;99.90;;;;;;7382931;19;20003;-75
2024/01/27 07:13:32;;;;;;;19.42;5.30;;;6.10;99.90;;;;;;7380739;19;20003;-75
2024/01/27 07:16:01;;;;;;;11.43;5.03;;;6.10;99.90;;;;;;7382506;19;20006;-75
2024/01/27 07:18:29;;;;;;;14.63;4.75;;;6.00;99.90;;;;;;7381080;19;20285;-75
2024/01/27 07:20:59;;;;;;;12.77;4.57;;;6.00;99.90;;;;;;7402675;19;20102;-75
2024/01/27 07:23:31;;;;;;;10.50;4.75;;;6.00;99.90;;;;;;7380852;19;20027;-75
2024/01/27 07:26:03;;;;;;;16.45;3.97;;;6.00;99.90;;;;;;7380474;19;20007;-75
2024/01/27 07:28:31;;;;;;;12.10;3.85;;;6.10;99.90;;;;;;7380931;19;20417;-75
2024/01/27 07:31:00;;;;;;;17.77;3.90;;;6.10;99.90;;;;;;7381758;19;20087;-75
2024/01/27 07:33:29;;;;;;;9.75;4.07;;;6.10;99.90;;;;;;7392815;19;20058;-75
2024/01/27 07:36:01;;;;;;;12.18;4.18;;;6.00;99.90;;;;;;7402965;19;20067;-75
2024/01/27 07:38:32;;;;;;;25.98;4.63;;;6.00;99.90;;;;;;7379998;19;20031;-75
2024/01/27 07:41:02;;;;;;;;;;;6.00;99.90;;;;;;7382687;19;20024;-75
2024/01/27 07:43:31;;;;;;;12.07;3.47;;;6.10;99.90;;;;;;7379641;19;19918;-75
2024/01/27 07:46:00;;;;;;;9.55;4.13;;;6.10;99.90;;;;;;7379663;19;20010;-76
2024/01/27 07:48:29;;;;;;;22.65;6.53;;;6.10;99.90;;;;;;7402099;19;20011;-75
2024/01/27 07:50:57;;;;;;;19.30;7.70;;;6.10;99.90;;;;;;7405225;19;20014;-75
2024/01/27 07:53:26;;;;;;;16.33;6.55;;;6.10;99.90;;;;;;7381212;19;20010;-75
2024/01/27 07:55:57;;;;;;;23.33;7.60;;;6.10;99.90;;;;;;7380060;19;20334;-76
2024/01/27 07:58:26;;;;;;;17.70;7.40;;;6.20;99.90;;;;;;7379806;19;20009;-76
2024/01/27 08:00:55;;;;;;;19.65;7.18;;;6.20;99.90;;;;;;7379246;19;20006;-76
2024/01/27 08:03:24;;;;;;;17.52;7.63;;;6.20;99.90;;;;;;7405053;19;20070;-76
2024/01/27 08:05:52;;;;;;;19.92;6.78;;;6.20;99.90;;;;;;7381275;19;20358;-76
2024/01/27 08:08:21;;;;;;;15.43;7.80;;;6.20;99.90;;;;;;7378856;19;20108;-74
2024/01/27 08:10:50;;;;;;;28.48;7.35;;;6.30;99.90;;;;;;7386594;19;20007;-75
2024/01/27 08:13:21;;;;;;;25.48;8.02;;;6.20;99.90;;;;;;7390601;19;20044;-76
2024/01/27 08:15:50;;;;;;;18.30;7.65;;;6.20;99.90;;;;;;7391102;19;20003;-76
2024/01/27 08:18:18;;;;;;;21.73;11.25;;;6.30;99.90;;;;;;7411932;19;20095;-76
2024/01/27 08:20:47;;;;;;;54.75;22.35;;;6.30;99.90;;;;;;7386401;19;20023;-76
2024/01/27 08:23:17;;;;;;;47.20;22.00;;;6.30;99.90;;;;;;7385140;19;19999;-75
2024/01/27 08:25:47;;;;;;;42.00;16.98;;;6.30;99.90;;;;;;7383017;19;20247;-75
2024/01/27 08:28:16;;;;;;;49.63;18.27;;;6.30;99.90;;;;;;7379068;19;20032;-75
2024/01/27 08:30:47;;;;;;;35.83;15.13;;;6.30;99.90;;;;;;7380989;19;20006;-76
2024/01/27 08:33:15;;;;;;;;;;;6.30;99.90;;;;;;7401814;19;20007;-76
2024/01/27 08:35:44;;;;;;;37.58;13.95;;;6.40;99.90;;;;;;7379327;19;19914;-75
2024/01/27 08:38:14;;;;;;;29.80;13.45;;;6.40;99.90;;;;;;7376404;19;20002;-76
2024/01/27 08:40:43;;;;;;;48.65;19.63;;;6.40;99.90;;;;;;7377653;19;20026;-76
2024/01/27 08:43:12;;;;;;;46.30;13.13;;;6.40;99.90;;;;;;7381405;19;20014;-76
2024/01/27 08:45:42;;;;;;;33.13;11.10;;;6.50;99.90;;;;;;7377917;19;20013;-76
2024/01/27 08:48:15;;;;;;;28.85;9.88;;;6.50;99.90;;;;;;7399706;19;20064;-76
2024/01/27 08:50:44;;;;;;;36.65;12.55;;;6.60;99.90;;;;;;7379133;19;20363;-76
2024/01/27 08:53:12;;;;;;;32.58;14.82;;;6.60;99.90;;;;;;7377438;19;20398;-76
2024/01/27 08:55:41;;;;;;;42.45;18.70;;;6.60;99.90;;;;;;7377972;19;20369;-76
2024/01/27 08:58:10;;;;;;;42.83;16.58;;;6.70;99.90;;;;;;7377792;19;20031;-76
2024/01/27 09:00:38;;;;;;;44.88;17.90;;;6.70;99.90;;;;;;7377083;19;20037;-76
2024/01/27 09:03:07;;;;;;;78.97;22.88;;;6.80;99.90;;;;;;7401799;19;20010;-75
2024/01/27 09:05:40;;;;;;;43.83;17.65;;;6.80;99.90;;;;;;7377532;19;20019;-75
2024/01/27 09:08:09;;;;;;;60.92;19.23;;;6.80;99.90;;;;;;7377114;19;20027;-75
2024/01/27 09:10:37;;;;;;;43.15;17.52;;;6.90;99.90;;;;;;7377511;19;20007;-75
2024/01/27 09:13:07;;;;;;;49.47;15.38;;;6.90;99.90;;;;;;7377286;19;20070;-75
2024/01/27 09:15:35;;;;;;;101.30;30.40;;;7.00;99.90;;;;;;7374104;19;20366;-75
2024/01/27 09:18:05;;;;;;;42.83;14.27;;;7.00;99.90;;;;;;7397998;19;20070;-75
2024/01/27 09:20:34;;;;;;;36.58;11.70;;;7.00;99.90;;;;;;7376765;19;20003;-75
2024/01/27 09:23:05;;;;;;;27.45;12.45;;;7.10;99.90;;;;;;7377059;19;20028;-75
2024/01/27 09:25:34;;;;;;;41.40;13.73;;;7.10;99.90;;;;;;7377218;19;20014;-74
2024/01/27 09:28:03;;;;;;;39.50;13.85;;;7.20;99.90;;;;;;7375177;19;20058;-75
2024/01/27 09:30:33;;;;;;;36.95;15.27;;;7.20;99.90;;;;;;7398666;19;20019;-73
2024/01/27 09:33:07;;;;;;;40.42;13.45;;;7.30;99.90;;;;;;7379548;19;20058;-75
2024/01/27 09:35:36;;;;;;;43.17;14.50;;;7.30;99.90;;;;;;7378526;19;20033;-75
2024/01/27 09:38:09;;;;;;;46.88;16.50;;;7.40;99.90;;;;;;7377414;19;20224;-76
2024/01/27 09:40:38;;;;;;;50.40;16.30;;;7.40;99.90;;;;;;7376572;19;20018;-73
2024/01/27 09:43:07;;;;;;;43.80;16.13;;;7.50;99.90;;;;;;7378048;19;20169;-73
2024/01/27 09:45:36;;;;;;;42.60;15.38;;;7.50;99.90;;;;;;7381832;19;20059;-73
2024/01/27 09:48:07;;;;;;;34.25;13.25;;;7.60;99.90;;;;;;7399833;19;20070;-74
2024/01/27 09:50:36;;;;;;;;;;;7.70;99.90;;;;;;7375502;19;20010;-73
2024/01/27 09:53:09;;;;;;;33.72;12.52;;;7.80;99.90;;;;;;7375350;19;20001;-75
2024/01/27 09:55:38;;;;;;;31.75;12.13;;;7.90;99.90;;;;;;7374967;19;20019;-73
2024/01/27 09:58:07;;;;;;;28.95;12.27;;;8.00;99.90;;;;;;7375229;19;20003;-72
2024/01/27 10:00:38;;;;;;;37.53;11.60;;;8.10;99.90;;;;;;7392260;19;20541;-73
2024/01/27 10:03:09;;;;;;;23.77;10.48;;;8.10;99.90;;;;;;7398126;19;20007;-73
2024/01/27 10:05:39;;;;;;;31.00;10.48;;;8.30;99.90;;;;;;7375757;19;20054;-72
2024/01/27 10:08:11;;;;;;;34.80;11.40;;;8.30;99.90;;;;;;7374483;19;20018;-73
2024/01/27 10:10:41;;;;;;;26.27;9.60;;;8.30;99.90;;;;;;7376533;19;20002;-72
2024/01/27 10:13:09;;;;;;;29.40;11.93;;;8.40;99.90;;;;;;7374622;19;20010;-72
2024/01/27 10:15:38;;;;;;;33.58;14.35;;;8.50;99.90;;;;;;7377690;19;20078;-73
2024/01/27 10:18:08;;;;;;;54.67;18.83;;;8.60;99.90;;;;;;7401373;19;20010;-73
2024/01/27 10:20:38;;;;;;;78.53;28.08;;;8.60;99.90;;;;;;7378883;19;20015;-71
2024/01/27 10:23:18;;;;;;;67.47;22.35;;;8.70;99.90;;;;;;7380843;19;20090;-73
2024/01/27 10:25:47;;;;;;;29.83;10.75;;;8.70;99.90;;;;;;7380603;19;20055;-72
2024/01/27 10:28:15;;;;;;;35.00;13.43;;;8.70;99.90;;;;;;7378981;19;20351;-73
2024/01/27 10:30:44;;;;;;;42.25;16.05;;;8.80;99.90;;;;;;7382219;19;20019;-72
2024/01/27 10:33:14;;;;;;;40.58;15.45;;;8.80;99.90;;;;;;7402663;19;20006;-72
2024/01/27 10:35:43;;;;;;;46.88;12.80;;;8.90;99.90;;;;;;7379825;19;20021;-73
2024/01/27 10:38:11;;;;;;;32.60;10.00;;;8.90;99.90;;;;;;7380356;19;20246;-73
2024/01/27 10:40:43;;;;;;;18.63;8.82;;;9.00;99.90;;;;;;7382106;19;20010;-73
2024/01/27 10:43:12;;;;;;;27.67;9.32;;;9.10;99.90;;;;;;7382741;19;20062;-73
2024/01/27 10:45:42;;;;;;;24.05;9.05;;;9.10;99.90;;;;;;7381022;19;20070;-73
2024/01/27 10:48:12;;;;;;;26.77;10.50;;;9.20;99.90;;;;;;7405205;19;20022;-73
2024/01/27 10:50:41;;;;;;;21.83;9.50;;;9.20;99.90;;;;;;7382198;19;20068;-73
2024/01/27 10:53:17;;;;;;;26.60;9.10;;;9.20;99.90;;;;;;7384385;19;20011;-73
2024/01/27 10:55:50;;;;;;;30.90;10.23;;;9.30;99.90;;;;;;7385532;19;20043;-72
2024/01/27 10:58:20;;;;;;;32.22;9.50;;;9.40;99.90;;;;;;7382304;19;20410;-71
2024/01/27 11:00:51;;;;;;;29.17;9.30;;;9.50;99.90;;;;;;7387309;19;20015;-71
2024/01/27 11:03:20;;;;;;;29.60;10.02;;;9.50;99.90;;;;;;7410981;19;20035;-70
2024/01/27 11:05:50;;;;;;;21.40;9.65;;;9.50;99.90;;;;;;7384495;19;20388;-71
2024/01/27 11:08:24;;;;;;;28.00;10.13;;;9.60;99.90;;;;;;7384831;19;20387;-72
2024/01/27 11:10:56;;;;;;;34.80;10.02;;;9.60;99.90;;;;;;7385094;19;20013;-71
2024/01/27 11:13:26;;;;;;;34.78;9.68;;;9.80;99.90;;;;;;7380389;19;20074;-73
2024/01/27 11:15:55;;;;;;;26.52;10.30;;;9.80;99.90;;;;;;7381674;19;20010;-73
2024/01/27 11:18:24;;;;;;;23.63;10.02;;;9.90;99.90;;;;;;7404467;19;20010;-73
2024/01/27 11:20:56;;;;;;;22.85;10.43;;;9.90;99.90;;;;;;7380757;19;20011;-73
2024/01/27 11:23:35;;;;;;;26.10;9.70;;;10.00;99.90;;;;;;7380508;19;20007;-75
2024/01/27 11:26:14;;;;;;;31.40;8.20;;;10.00;99.90;;;;;;7382674;19;20014;-72
2024/01/27 11:28:43;;;;;;;24.38;8.13;;;10.00;99.90;;;;;;7378553;19;20132;-72
2024/01/27 11:31:12;;;;;;;19.95;7.85;;;10.00;99.90;;;;;;7381836;19;19999;-73
2024/01/27 11:33:45;;;;;;;19.45;8.18;;;10.10;99.90;;;;;;7402393;19;20280;-72
2024/01/27 11:36:23;;;;;;;20.60;7.03;;;10.10;99.90;;;;;;7380751;19;20010;-74
2024/01/27 11:38:52;;;;;;;15.80;7.30;;;10.10;99.90;;;;;;7377876;19;20241;-73
2024/01/27 11:41:31;;;;;;;18.48;7.68;;;10.10;99.90;;;;;;7381553;19;20015;-73
2024/01/27 11:44:02;;;;;;;22.50;7.68;;;10.20;99.90;;;;;;7381213;19;20007;-74
2024/01/27 11:46:30;;;;;;;19.65;7.10;;;10.20;99.90;;;;;;7380025;19;20031;-73
2024/01/27 11:49:04;;;;;;;18.33;7.30;;;10.20;99.90;;;;;;7379206;19;20583;-75
2024/01/27 11:51:33;;;;;;;22.23;7.22;;;10.20;99.90;;;;;;7402280;19;20366;-72
2024/01/27 11:54:01;;;;;;;22.88;6.93;;;10.30;99.90;;;;;;7378158;19;20010;-75
2024/01/27 11:56:33;;;;;;;20.35;6.63;;;10.30;99.90;;;;;;7378918;19;20015;-73
2024/01/27 11:59:01;;;;;;;;;;;10.30;99.90;;;;;;7379787;19;20082;-75
2024/01/27 12:01:30;;;;;;;17.48;6.93;;;10.30;99.90;;;;;;7379415;19;19914;-73
2024/01/27 12:03:59;;;;;;;16.50;6.35;;;10.30;99.90;;;;;;7378557;19;20007;-72
2024/01/27 12:06:28;;;;;;;33.53;6.95;;;10.30;99.90;;;;;;7403333;19;20011;-71
2024/01/27 12:08:58;;;;;;;21.33;7.80;;;10.30;99.90;;;;;;7378477;19;20397;-72
2024/01/27 12:11:27;;;;;;;19.02;6.47;;;10.30;99.90;;;;;;7379199;19;20007;-73
2024/01/27 12:14:00;;;;;;;17.33;7.07;;;10.30;99.90;;;;;;7381128;19;20007;-72
2024/01/27 12:16:29;;;;;;;20.38;7.93;;;10.30;99.90;;;;;;7379823;19;20055;-73
2024/01/27 12:18:57;;;;;;;31.45;8.13;;;10.40;99.90;;;;;;7381598;19;20281;-73
2024/01/27 12:21:28;;;;;;;22.92;7.32;;;10.40;99.90;;;;;;7405213;19;20067;-73
2024/01/27 12:23:58;;;;;;;20.30;7.10;;;10.40;99.90;;;;;;7378366;19;20020;-73
2024/01/27 12:26:28;;;;;;;26.48;8.10;;;10.40;99.90;;;;;;7377062;19;20007;-72
2024/01/27 12:29:00;;;;;;;20.65;6.88;;;10.40;99.90;;;;;;7378084;19;20113;-73
2024/01/27 12:31:30;;;;;;;20.73;5.95;;;10.50;99.90;;;;;;7378788;19;20015;-74
2024/01/27 12:34:01;;;;;;;17.33;7.03;;;10.50;99.90;;;;;;7381233;19;20066;-75
2024/01/27 12:36:30;;;;;;;21.13;7.10;;;10.50;99.90;;;;;;7402351;19;20066;-73
2024/01/27 12:39:00;;;;;;;13.73;6.15;;;10.50;99.90;;;;;;7375762;19;20010;-74
2024/01/27 12:41:29;;;;;;;17.93;7.30;;;10.50;99.90;;;;;;7379087;19;20573;-73
2024/01/27 12:44:01;;;;;;;14.55;6.57;;;10.60;99.90;;;;;;7378568;19;20010;-72
2024/01/27 12:46:29;;;;;;;;;;;10.60;99.90;;;;;;7379318;19;20069;-73
2024/01/27 12:48:58;;;;;;;14.60;5.72;;;10.60;99.90;;;;;;7380052;19;19951;-73
2024/01/27 12:51:26;;;;;;;19.65;8.63;;;10.60;99.90;;;;;;7400999;19;20018;-74
2024/01/27 12:53:57;;;;;;;20.08;6.28;;;10.70;99.90;;;;;;7377704;19;20017;-73
2024/01/27 12:56:26;;;;;;;21.83;7.60;;;10.70;99.90;;;;;;7379881;19;20434;-73
2024/01/27 12:58:55;;;;;;;17.30;5.68;;;10.70;99.90;;;;;;7378514;19;20013;-73
2024/01/27 13:01:27;;;;;;;17.73;5.13;;;10.80;99.90;;;;;;7376529;19;20062;-74